New Orleans, Louisiana
Traffic Map
Current Weather Conditions
New Orleans, Louisiana
Clear
Clear
71°
Feels Like: 71°
Wind Chill: 71° Ceiling: Unl
Heat Index: 71° Visibility: 10mi
Dew Point: 50° Wind: 13mph
Humidity: 47% Direction: 350° (N)
Pressure: 29.97in Gusts: 0mph
Raw Report DataKNEW 210453Z AUTO 35011KT 10SM CLR 22/10 A2997 RMK AO2 SLP142 T02170100 TSNO
Traffic Incident Summary
Active as of:
Severity:
Category:
InformationThere was an issue retrieving the traffic information for this location. Please try a different location or try again shortly.
Advertisements
Track Severe Weather on mobile